sensor_id;sensor_type;location;lat;lon;timestamp;P1;durP1;ratioP1;P2;durP2;ratioP2
32196;SDS011;18697;42.770;23.400;2023-05-29T00:00:28;5.13;;;3.15;;
32196;SDS011;18697;42.770;23.400;2023-05-29T00:02:54;7.10;;;4.30;;
32196;SDS011;18697;42.770;23.400;2023-05-29T00:05:19;8.07;;;5.18;;
32196;SDS011;18697;42.770;23.400;2023-05-29T00:07:45;9.90;;;5.50;;
32196;SDS011;18697;42.770;23.400;2023-05-29T00:10:11;5.60;;;3.97;;
32196;SDS011;18697;42.770;23.400;2023-05-29T00:12:37;9.50;;;6.00;;
32196;SDS011;18697;42.770;23.400;2023-05-29T00:15:03;6.40;;;3.75;;
32196;SDS011;18697;42.770;23.400;2023-05-29T00:17:29;6.80;;;3.65;;
32196;SDS011;18697;42.770;23.400;2023-05-29T00:19:57;8.02;;;5.85;;
32196;SDS011;18697;42.770;23.400;2023-05-29T00:22:26;7.22;;;5.03;;
32196;SDS011;18697;42.770;23.400;2023-05-29T00:24:52;5.95;;;5.07;;
32196;SDS011;18697;42.770;23.400;2023-05-29T00:27:17;5.15;;;3.40;;
32196;SDS011;18697;42.770;23.400;2023-05-29T00:29:43;5.60;;;5.05;;
32196;SDS011;18697;42.770;23.400;2023-05-29T00:32:09;6.93;;;4.10;;
32196;SDS011;18697;42.770;23.400;2023-05-29T00:34:34;7.82;;;5.28;;
32196;SDS011;18697;42.770;23.400;2023-05-29T00:37:00;8.95;;;5.05;;
32196;SDS011;18697;42.770;23.400;2023-05-29T00:39:26;8.38;;;5.25;;
32196;SDS011;18697;42.770;23.400;2023-05-29T00:41:52;4.18;;;3.78;;
32196;SDS011;18697;42.770;23.400;2023-05-29T00:44:17;5.35;;;4.55;;
32196;SDS011;18697;42.770;23.400;2023-05-29T00:46:43;4.25;;;3.83;;
32196;SDS011;18697;42.770;23.400;2023-05-29T00:49:10;5.22;;;4.15;;
32196;SDS011;18697;42.770;23.400;2023-05-29T00:51:36;5.82;;;3.80;;
32196;SDS011;18697;42.770;23.400;2023-05-29T00:54:04;7.05;;;4.20;;
32196;SDS011;18697;42.770;23.400;2023-05-29T00:56:31;6.47;;;3.53;;
32196;SDS011;18697;42.770;23.400;2023-05-29T00:58:58;6.30;;;3.40;;
32196;SDS011;18697;42.770;23.400;2023-05-29T01:01:24;5.18;;;3.50;;
32196;SDS011;18697;42.770;23.400;2023-05-29T01:03:49;6.05;;;3.53;;
32196;SDS011;18697;42.770;23.400;2023-05-29T01:06:18;5.38;;;3.70;;
32196;SDS011;18697;42.770;23.400;2023-05-29T01:08:44;3.55;;;2.80;;
32196;SDS011;18697;42.770;23.400;2023-05-29T01:11:18;3.85;;;2.90;;
32196;SDS011;18697;42.770;23.400;2023-05-29T01:13:51;5.03;;;2.90;;
32196;SDS011;18697;42.770;23.400;2023-05-29T01:16:25;4.20;;;3.70;;
32196;SDS011;18697;42.770;23.400;2023-05-29T01:19:16;4.63;;;3.63;;
32196;SDS011;18697;42.770;23.400;2023-05-29T01:24:18;3.85;;;3.13;;
32196;SDS011;18697;42.770;23.400;2023-05-29T01:29:28;4.65;;;3.10;;
32196;SDS011;18697;42.770;23.400;2023-05-29T01:31:57;7.43;;;3.83;;
32196;SDS011;18697;42.770;23.400;2023-05-29T01:34:23;5.53;;;3.70;;
32196;SDS011;18697;42.770;23.400;2023-05-29T01:36:49;5.63;;;3.88;;
32196;SDS011;18697;42.770;23.400;2023-05-29T01:39:15;7.38;;;4.20;;
32196;SDS011;18697;42.770;23.400;2023-05-29T01:41:41;11.75;;;5.20;;
32196;SDS011;18697;42.770;23.400;2023-05-29T01:44:08;5.97;;;4.20;;
32196;SDS011;18697;42.770;23.400;2023-05-29T01:46:38;11.00;;;5.32;;
32196;SDS011;18697;42.770;23.400;2023-05-29T01:49:05;10.48;;;5.40;;
32196;SDS011;18697;42.770;23.400;2023-05-29T01:51:32;5.03;;;4.32;;
32196;SDS011;18697;42.770;23.400;2023-05-29T01:53:58;4.32;;;3.45;;
32196;SDS011;18697;42.770;23.400;2023-05-29T01:56:25;4.88;;;3.30;;
32196;SDS011;18697;42.770;23.400;2023-05-29T01:58:52;4.25;;;3.20;;
32196;SDS011;18697;42.770;23.400;2023-05-29T02:01:19;3.97;;;3.13;;
32196;SDS011;18697;42.770;23.400;2023-05-29T02:03:46;5.15;;;3.28;;
32196;SDS011;18697;42.770;23.400;2023-05-29T02:06:11;4.00;;;3.38;;
32196;SDS011;18697;42.770;23.400;2023-05-29T02:08:37;5.95;;;3.80;;
32196;SDS011;18697;42.770;23.400;2023-05-29T02:11:02;3.20;;;2.90;;
32196;SDS011;18697;42.770;23.400;2023-05-29T02:13:27;3.50;;;3.20;;
32196;SDS011;18697;42.770;23.400;2023-05-29T02:15:53;3.85;;;3.45;;
32196;SDS011;18697;42.770;23.400;2023-05-29T02:18:18;6.35;;;4.93;;
32196;SDS011;18697;42.770;23.400;2023-05-29T02:20:44;8.55;;;5.32;;
32196;SDS011;18697;42.770;23.400;2023-05-29T02:23:10;8.05;;;5.63;;
32196;SDS011;18697;42.770;23.400;2023-05-29T02:25:35;6.55;;;3.50;;
32196;SDS011;18697;42.770;23.400;2023-05-29T02:28:01;6.30;;;4.35;;
32196;SDS011;18697;42.770;23.400;2023-05-29T02:30:27;4.18;;;3.78;;
32196;SDS011;18697;42.770;23.400;2023-05-29T02:32:53;7.38;;;5.47;;
32196;SDS011;18697;42.770;23.400;2023-05-29T02:35:19;3.40;;;3.10;;
32196;SDS011;18697;42.770;23.400;2023-05-29T02:37:47;5.78;;;4.22;;
32196;SDS011;18697;42.770;23.400;2023-05-29T02:40:13;7.28;;;4.05;;
32196;SDS011;18697;42.770;23.400;2023-05-29T02:42:38;9.65;;;4.78;;
32196;SDS011;18697;42.770;23.400;2023-05-29T02:45:04;6.03;;;3.30;;
32196;SDS011;18697;42.770;23.400;2023-05-29T02:47:30;4.45;;;3.47;;
32196;SDS011;18697;42.770;23.400;2023-05-29T02:49:55;5.05;;;3.05;;
32196;SDS011;18697;42.770;23.400;2023-05-29T02:52:21;6.40;;;3.35;;
32196;SDS011;18697;42.770;23.400;2023-05-29T02:54:48;4.22;;;3.00;;
32196;SDS011;18697;42.770;23.400;2023-05-29T02:57:13;5.85;;;3.10;;
32196;SDS011;18697;42.770;23.400;2023-05-29T02:59:39;7.90;;;3.88;;
32196;SDS011;18697;42.770;23.400;2023-05-29T03:02:04;8.48;;;4.63;;
32196;SDS011;18697;42.770;23.400;2023-05-29T03:04:30;14.43;;;5.50;;
32196;SDS011;18697;42.770;23.400;2023-05-29T03:06:55;6.50;;;3.65;;
32196;SDS011;18697;42.770;23.400;2023-05-29T03:09:21;7.72;;;4.25;;
32196;SDS011;18697;42.770;23.400;2023-05-29T03:11:46;3.72;;;3.35;;
32196;SDS011;18697;42.770;23.400;2023-05-29T03:14:14;5.60;;;3.28;;
32196;SDS011;18697;42.770;23.400;2023-05-29T03:16:40;8.32;;;3.97;;
32196;SDS011;18697;42.770;23.400;2023-05-29T03:19:05;8.05;;;4.90;;
32196;SDS011;18697;42.770;23.400;2023-05-29T03:21:32;9.00;;;5.03;;
32196;SDS011;18697;42.770;23.400;2023-05-29T03:23:58;8.10;;;4.93;;
32196;SDS011;18697;42.770;23.400;2023-05-29T03:26:24;4.45;;;3.53;;
32196;SDS011;18697;42.770;23.400;2023-05-29T03:28:50;9.50;;;5.53;;
32196;SDS011;18697;42.770;23.400;2023-05-29T03:31:16;6.78;;;4.82;;
32196;SDS011;18697;42.770;23.400;2023-05-29T03:33:42;10.32;;;5.53;;
32196;SDS011;18697;42.770;23.400;2023-05-29T03:36:07;11.77;;;5.80;;
32196;SDS011;18697;42.770;23.400;2023-05-29T03:38:33;4.70;;;4.13;;
32196;SDS011;18697;42.770;23.400;2023-05-29T03:40:58;8.30;;;6.28;;
32196;SDS011;18697;42.770;23.400;2023-05-29T03:43:23;6.22;;;4.40;;
32196;SDS011;18697;42.770;23.400;2023-05-29T03:45:49;8.30;;;4.55;;
32196;SDS011;18697;42.770;23.400;2023-05-29T03:48:14;9.55;;;6.70;;
32196;SDS011;18697;42.770;23.400;2023-05-29T03:50:40;6.05;;;3.90;;
32196;SDS011;18697;42.770;23.400;2023-05-29T03:53:05;5.80;;;3.63;;
32196;SDS011;18697;42.770;23.400;2023-05-29T03:55:31;5.82;;;3.47;;
32196;SDS011;18697;42.770;23.400;2023-05-29T03:57:56;5.22;;;3.97;;
32196;SDS011;18697;42.770;23.400;2023-05-29T04:00:22;6.70;;;4.32;;
32196;SDS011;18697;42.770;23.400;2023-05-29T04:02:50;10.35;;;5.43;;
32196;SDS011;18697;42.770;23.400;2023-05-29T04:05:16;5.90;;;4.05;;
32196;SDS011;18697;42.770;23.400;2023-05-29T04:07:41;13.82;;;6.72;;
32196;SDS011;18697;42.770;23.400;2023-05-29T04:10:07;5.90;;;3.72;;
32196;SDS011;18697;42.770;23.400;2023-05-29T04:12:33;9.45;;;5.28;;
32196;SDS011;18697;42.770;23.400;2023-05-29T04:14:58;11.05;;;5.28;;
32196;SDS011;18697;42.770;23.400;2023-05-29T04:17:24;16.25;;;6.55;;
32196;SDS011;18697;42.770;23.400;2023-05-29T04:19:49;15.25;;;7.65;;
32196;SDS011;18697;42.770;23.400;2023-05-29T04:22:15;18.95;;;12.77;;
32196;SDS011;18697;42.770;23.400;2023-05-29T04:24:40;45.55;;;26.23;;
32196;SDS011;18697;42.770;23.400;2023-05-29T04:27:07;11.65;;;7.32;;
32196;SDS011;18697;42.770;23.400;2023-05-29T04:29:34;25.00;;;16.85;;
32196;SDS011;18697;42.770;23.400;2023-05-29T04:31:59;14.07;;;8.75;;
32196;SDS011;18697;42.770;23.400;2023-05-29T04:34:28;12.43;;;8.05;;
32196;SDS011;18697;42.770;23.400;2023-05-29T04:36:55;11.43;;;8.07;;
32196;SDS011;18697;42.770;23.400;2023-05-29T04:39:23;14.48;;;7.55;;
32196;SDS011;18697;42.770;23.400;2023-05-29T04:41:49;12.00;;;8.10;;
32196;SDS011;18697;42.770;23.400;2023-05-29T04:44:15;10.85;;;8.07;;
32196;SDS011;18697;42.770;23.400;2023-05-29T04:46:40;12.63;;;7.18;;
32196;SDS011;18697;42.770;23.400;2023-05-29T04:49:09;15.20;;;7.68;;
32196;SDS011;18697;42.770;23.400;2023-05-29T04:51:35;11.15;;;6.88;;
32196;SDS011;18697;42.770;23.400;2023-05-29T04:54:01;10.40;;;6.20;;
32196;SDS011;18697;42.770;23.400;2023-05-29T04:56:27;15.93;;;7.95;;
32196;SDS011;18697;42.770;23.400;2023-05-29T04:58:53;15.82;;;10.95;;
32196;SDS011;18697;42.770;23.400;2023-05-29T05:01:18;18.00;;;11.55;;
32196;SDS011;18697;42.770;23.400;2023-05-29T05:03:44;19.17;;;12.05;;
32196;SDS011;18697;42.770;23.400;2023-05-29T05:06:10;14.15;;;9.20;;
32196;SDS011;18697;42.770;23.400;2023-05-29T05:08:35;14.73;;;8.70;;
32196;SDS011;18697;42.770;23.400;2023-05-29T05:11:01;10.75;;;6.93;;
32196;SDS011;18697;42.770;23.400;2023-05-29T05:13:27;13.80;;;9.40;;
32196;SDS011;18697;42.770;23.400;2023-05-29T05:15:53;22.35;;;13.50;;
32196;SDS011;18697;42.770;23.400;2023-05-29T05:18:18;27.35;;;15.20;;
32196;SDS011;18697;42.770;23.400;2023-05-29T05:20:44;19.73;;;8.65;;
32196;SDS011;18697;42.770;23.400;2023-05-29T05:23:10;14.25;;;8.13;;
32196;SDS011;18697;42.770;23.400;2023-05-29T05:25:35;8.88;;;6.57;;
32196;SDS011;18697;42.770;23.400;2023-05-29T05:28:02;14.95;;;7.40;;
32196;SDS011;18697;42.770;23.400;2023-05-29T05:30:30;15.02;;;7.05;;
32196;SDS011;18697;42.770;23.400;2023-05-29T05:32:56;18.25;;;8.18;;
32196;SDS011;18697;42.770;23.400;2023-05-29T05:35:23;10.82;;;7.18;;
32196;SDS011;18697;42.770;23.400;2023-05-29T05:37:48;9.55;;;6.40;;
32196;SDS011;18697;42.770;23.400;2023-05-29T05:40:14;11.43;;;6.18;;
32196;SDS011;18697;42.770;23.400;2023-05-29T05:42:39;14.70;;;6.38;;
32196;SDS011;18697;42.770;23.400;2023-05-29T05:45:05;8.20;;;5.68;;
32196;SDS011;18697;42.770;23.400;2023-05-29T05:47:31;7.10;;;5.25;;
32196;SDS011;18697;42.770;23.400;2023-05-29T05:49:57;8.75;;;5.43;;
32196;SDS011;18697;42.770;23.400;2023-05-29T05:52:23;11.73;;;5.38;;
32196;SDS011;18697;42.770;23.400;2023-05-29T05:54:49;10.38;;;5.38;;
32196;SDS011;18697;42.770;23.400;2023-05-29T05:57:14;11.30;;;6.05;;
32196;SDS011;18697;42.770;23.400;2023-05-29T05:59:40;5.80;;;4.55;;
32196;SDS011;18697;42.770;23.400;2023-05-29T06:02:06;7.18;;;5.22;;
32196;SDS011;18697;42.770;23.400;2023-05-29T06:04:31;10.13;;;5.40;;
32196;SDS011;18697;42.770;23.400;2023-05-29T06:06:57;5.30;;;4.00;;
32196;SDS011;18697;42.770;23.400;2023-05-29T06:09:22;6.68;;;4.40;;
32196;SDS011;18697;42.770;23.400;2023-05-29T06:11:48;8.63;;;4.50;;
32196;SDS011;18697;42.770;23.400;2023-05-29T06:14:13;8.18;;;4.90;;
32196;SDS011;18697;42.770;23.400;2023-05-29T06:16:39;11.32;;;4.97;;
32196;SDS011;18697;42.770;23.400;2023-05-29T06:19:05;7.90;;;4.70;;
32196;SDS011;18697;42.770;23.400;2023-05-29T06:21:31;7.95;;;4.80;;
32196;SDS011;18697;42.770;23.400;2023-05-29T06:23:56;6.85;;;4.18;;
32196;SDS011;18697;42.770;23.400;2023-05-29T06:26:22;6.57;;;4.40;;
32196;SDS011;18697;42.770;23.400;2023-05-29T06:28:49;6.65;;;4.63;;
32196;SDS011;18697;42.770;23.400;2023-05-29T06:31:15;6.25;;;4.88;;
32196;SDS011;18697;42.770;23.400;2023-05-29T06:33:41;8.70;;;4.68;;
32196;SDS011;18697;42.770;23.400;2023-05-29T06:36:06;4.45;;;3.67;;
32196;SDS011;18697;42.770;23.400;2023-05-29T06:38:32;6.68;;;4.88;;
32196;SDS011;18697;42.770;23.400;2023-05-29T06:40:57;8.60;;;4.20;;
32196;SDS011;18697;42.770;23.400;2023-05-29T06:43:22;6.90;;;4.03;;
32196;SDS011;18697;42.770;23.400;2023-05-29T06:45:48;4.38;;;3.40;;
32196;SDS011;18697;42.770;23.400;2023-05-29T06:48:13;3.72;;;3.22;;
32196;SDS011;18697;42.770;23.400;2023-05-29T06:50:39;5.30;;;3.65;;
32196;SDS011;18697;42.770;23.400;2023-05-29T06:53:04;3.78;;;3.30;;
32196;SDS011;18697;42.770;23.400;2023-05-29T06:55:29;4.35;;;3.70;;
32196;SDS011;18697;42.770;23.400;2023-05-29T06:57:55;3.75;;;2.45;;
32196;SDS011;18697;42.770;23.400;2023-05-29T07:00:20;5.00;;;2.65;;
32196;SDS011;18697;42.770;23.400;2023-05-29T07:02:46;1.92;;;1.83;;
32196;SDS011;18697;42.770;23.400;2023-05-29T07:05:11;4.05;;;2.42;;
32196;SDS011;18697;42.770;23.400;2023-05-29T07:07:36;3.45;;;2.38;;
32196;SDS011;18697;42.770;23.400;2023-05-29T07:10:02;3.42;;;2.08;;
32196;SDS011;18697;42.770;23.400;2023-05-29T07:12:27;3.47;;;3.03;;
32196;SDS011;18697;42.770;23.400;2023-05-29T07:14:53;2.83;;;2.58;;
32196;SDS011;18697;42.770;23.400;2023-05-29T07:17:18;6.95;;;2.72;;
32196;SDS011;18697;42.770;23.400;2023-05-29T07:19:43;2.00;;;1.80;;
32196;SDS011;18697;42.770;23.400;2023-05-29T07:22:09;2.78;;;1.88;;
32196;SDS011;18697;42.770;23.400;2023-05-29T07:24:35;2.17;;;1.60;;
32196;SDS011;18697;42.770;23.400;2023-05-29T07:27:00;5.13;;;2.05;;
32196;SDS011;18697;42.770;23.400;2023-05-29T07:29:25;3.08;;;1.98;;
32196;SDS011;18697;42.770;23.400;2023-05-29T07:31:51;5.15;;;1.95;;
32196;SDS011;18697;42.770;23.400;2023-05-29T07:34:16;2.33;;;1.85;;
32196;SDS011;18697;42.770;23.400;2023-05-29T07:36:59;3.00;;;2.20;;
32196;SDS011;18697;42.770;23.400;2023-05-29T07:39:26;3.17;;;2.88;;
32196;SDS011;18697;42.770;23.400;2023-05-29T07:41:52;3.15;;;1.88;;
32196;SDS011;18697;42.770;23.400;2023-05-29T07:44:17;4.03;;;2.03;;
32196;SDS011;18697;42.770;23.400;2023-05-29T07:46:43;3.35;;;1.88;;
32196;SDS011;18697;42.770;23.400;2023-05-29T07:49:08;3.95;;;2.10;;
32196;SDS011;18697;42.770;23.400;2023-05-29T07:51:34;2.80;;;1.95;;
32196;SDS011;18697;42.770;23.400;2023-05-29T07:53:59;1.70;;;1.60;;
32196;SDS011;18697;42.770;23.400;2023-05-29T07:56:25;2.83;;;2.25;;
32196;SDS011;18697;42.770;23.400;2023-05-29T07:58:50;4.88;;;2.10;;
32196;SDS011;18697;42.770;23.400;2023-05-29T08:01:18;3.05;;;2.40;;
32196;SDS011;18697;42.770;23.400;2023-05-29T08:03:44;4.63;;;2.22;;
32196;SDS011;18697;42.770;23.400;2023-05-29T08:06:10;2.10;;;1.92;;
32196;SDS011;18697;42.770;23.400;2023-05-29T08:08:35;5.38;;;2.58;;
32196;SDS011;18697;42.770;23.400;2023-05-29T08:11:01;2.33;;;2.10;;
32196;SDS011;18697;42.770;23.400;2023-05-29T08:13:26;2.70;;;2.30;;
32196;SDS011;18697;42.770;23.400;2023-05-29T08:15:52;5.43;;;2.30;;
32196;SDS011;18697;42.770;23.400;2023-05-29T08:18:18;2.22;;;2.03;;
32196;SDS011;18697;42.770;23.400;2023-05-29T08:20:43;2.33;;;2.13;;
32196;SDS011;18697;42.770;23.400;2023-05-29T08:23:09;2.55;;;1.83;;
32196;SDS011;18697;42.770;23.400;2023-05-29T08:25:35;5.00;;;2.35;;
32196;SDS011;18697;42.770;23.400;2023-05-29T08:28:00;2.53;;;2.15;;
32196;SDS011;18697;42.770;23.400;2023-05-29T08:30:26;2.60;;;2.40;;
32196;SDS011;18697;42.770;23.400;2023-05-29T08:32:51;2.47;;;2.28;;
32196;SDS011;18697;42.770;23.400;2023-05-29T08:35:17;2.67;;;2.10;;
32196;SDS011;18697;42.770;23.400;2023-05-29T08:37:42;3.28;;;2.40;;
32196;SDS011;18697;42.770;23.400;2023-05-29T08:40:08;2.55;;;2.35;;
32196;SDS011;18697;42.770;23.400;2023-05-29T08:42:36;3.58;;;2.38;;
32196;SDS011;18697;42.770;23.400;2023-05-29T08:45:05;2.85;;;2.60;;
32196;SDS011;18697;42.770;23.400;2023-05-29T08:47:34;4.97;;;2.75;;
32196;SDS011;18697;42.770;23.400;2023-05-29T08:50:05;2.80;;;2.60;;
32196;SDS011;18697;42.770;23.400;2023-05-29T08:52:32;2.97;;;2.50;;
32196;SDS011;18697;42.770;23.400;2023-05-29T08:55:01;4.80;;;2.60;;
32196;SDS011;18697;42.770;23.400;2023-05-29T08:57:28;3.15;;;2.30;;
32196;SDS011;18697;42.770;23.400;2023-05-29T08:59:54;3.10;;;2.70;;
32196;SDS011;18697;42.770;23.400;2023-05-29T09:02:21;5.63;;;2.38;;
32196;SDS011;18697;42.770;23.400;2023-05-29T09:04:46;2.40;;;2.20;;
32196;SDS011;18697;42.770;23.400;2023-05-29T09:07:15;6.68;;;2.35;;
32196;SDS011;18697;42.770;23.400;2023-05-29T09:09:42;5.10;;;2.42;;
32196;SDS011;18697;42.770;23.400;2023-05-29T09:12:07;4.10;;;2.63;;
32196;SDS011;18697;42.770;23.400;2023-05-29T09:17:04;4.15;;;2.70;;
32196;SDS011;18697;42.770;23.400;2023-05-29T09:19:31;3.20;;;2.78;;
32196;SDS011;18697;42.770;23.400;2023-05-29T09:22:04;6.90;;;3.47;;
32196;SDS011;18697;42.770;23.400;2023-05-29T09:24:33;4.13;;;2.63;;
32196;SDS011;18697;42.770;23.400;2023-05-29T09:27:01;2.72;;;2.28;;
32196;SDS011;18697;42.770;23.400;2023-05-29T09:29:32;4.35;;;3.10;;
32196;SDS011;18697;42.770;23.400;2023-05-29T09:31:58;3.70;;;2.50;;
32196;SDS011;18697;42.770;23.400;2023-05-29T09:34:24;5.60;;;2.97;;
32196;SDS011;18697;42.770;23.400;2023-05-29T09:36:51;3.35;;;2.97;;
32196;SDS011;18697;42.770;23.400;2023-05-29T09:39:17;4.07;;;3.00;;
32196;SDS011;18697;42.770;23.400;2023-05-29T09:41:46;4.70;;;3.10;;
32196;SDS011;18697;42.770;23.400;2023-05-29T09:44:13;2.97;;;2.67;;
32196;SDS011;18697;42.770;23.400;2023-05-29T09:46:40;3.65;;;3.00;;
32196;SDS011;18697;42.770;23.400;2023-05-29T09:49:11;3.10;;;2.80;;
32196;SDS011;18697;42.770;23.400;2023-05-29T09:51:37;4.50;;;3.45;;
32196;SDS011;18697;42.770;23.400;2023-05-29T09:54:16;3.42;;;2.80;;
32196;SDS011;18697;42.770;23.400;2023-05-29T09:56:42;3.15;;;2.60;;
32196;SDS011;18697;42.770;23.400;2023-05-29T09:59:11;2.75;;;2.53;;
32196;SDS011;18697;42.770;23.400;2023-05-29T10:01:39;4.55;;;2.92;;
32196;SDS011;18697;42.770;23.400;2023-05-29T10:04:07;4.45;;;3.00;;
32196;SDS011;18697;42.770;23.400;2023-05-29T10:06:34;4.72;;;2.60;;
32196;SDS011;18697;42.770;23.400;2023-05-29T10:09:02;2.83;;;2.63;;
32196;SDS011;18697;42.770;23.400;2023-05-29T10:11:28;2.97;;;2.53;;
32196;SDS011;18697;42.770;23.400;2023-05-29T10:13:55;4.05;;;2.88;;
32196;SDS011;18697;42.770;23.400;2023-05-29T10:16:22;2.83;;;2.63;;
32196;SDS011;18697;42.770;23.400;2023-05-29T10:18:55;4.05;;;2.47;;
32196;SDS011;18697;42.770;23.400;2023-05-29T10:21:21;3.35;;;3.00;;
32196;SDS011;18697;42.770;23.400;2023-05-29T10:23:50;4.55;;;3.00;;
32196;SDS011;18697;42.770;23.400;2023-05-29T10:26:22;3.53;;;2.67;;
32196;SDS011;18697;42.770;23.400;2023-05-29T10:29:25;3.78;;;2.75;;
32196;SDS011;18697;42.770;23.400;2023-05-29T10:31:59;4.13;;;2.85;;
32196;SDS011;18697;42.770;23.400;2023-05-29T10:34:48;4.57;;;2.60;;
32196;SDS011;18697;42.770;23.400;2023-05-29T10:47:53;2.72;;;2.53;;
32196;SDS011;18697;42.770;23.400;2023-05-29T10:50:35;4.57;;;2.63;;
32196;SDS011;18697;42.770;23.400;2023-05-29T10:53:03;4.40;;;2.40;;
32196;SDS011;18697;42.770;23.400;2023-05-29T10:55:34;4.20;;;2.40;;
32196;SDS011;18697;42.770;23.400;2023-05-29T10:58:07;4.35;;;2.28;;
32196;SDS011;18697;42.770;23.400;2023-05-29T11:00:33;3.10;;;2.65;;
32196;SDS011;18697;42.770;23.400;2023-05-29T11:03:07;2.55;;;2.35;;
32196;SDS011;18697;42.770;23.400;2023-05-29T11:05:33;3.83;;;2.92;;
32196;SDS011;18697;42.770;23.400;2023-05-29T11:07:59;3.53;;;2.78;;
32196;SDS011;18697;42.770;23.400;2023-05-29T11:13:31;4.75;;;3.35;;
32196;SDS011;18697;42.770;23.400;2023-05-29T11:18:43;6.05;;;2.90;;
32196;SDS011;18697;42.770;23.400;2023-05-29T11:21:15;4.30;;;2.70;;
32196;SDS011;18697;42.770;23.400;2023-05-29T11:23:51;6.65;;;2.85;;
32196;SDS011;18697;42.770;23.400;2023-05-29T11:26:21;6.80;;;2.83;;
32196;SDS011;18697;42.770;23.400;2023-05-29T11:28:48;3.40;;;2.60;;
32196;SDS011;18697;42.770;23.400;2023-05-29T11:31:13;2.95;;;2.67;;
32196;SDS011;18697;42.770;23.400;2023-05-29T11:33:40;3.33;;;3.03;;
32196;SDS011;18697;42.770;23.400;2023-05-29T11:36:08;3.90;;;2.97;;
32196;SDS011;18697;42.770;23.400;2023-05-29T11:38:33;2.47;;;2.28;;
32196;SDS011;18697;42.770;23.400;2023-05-29T11:41:00;4.82;;;3.03;;
32196;SDS011;18697;42.770;23.400;2023-05-29T11:43:26;4.32;;;2.55;;
32196;SDS011;18697;42.770;23.400;2023-05-29T11:45:52;3.47;;;2.70;;
32196;SDS011;18697;42.770;23.400;2023-05-29T11:48:17;3.90;;;2.15;;
32196;SDS011;18697;42.770;23.400;2023-05-29T11:50:43;5.50;;;1.85;;
32196;SDS011;18697;42.770;23.400;2023-05-29T11:53:11;4.75;;;2.00;;
32196;SDS011;18697;42.770;23.400;2023-05-29T11:55:37;2.63;;;2.20;;
32196;SDS011;18697;42.770;23.400;2023-05-29T11:58:03;3.10;;;2.03;;
32196;SDS011;18697;42.770;23.400;2023-05-29T12:00:35;3.30;;;2.00;;
32196;SDS011;18697;42.770;23.400;2023-05-29T12:03:03;3.92;;;2.10;;
32196;SDS011;18697;42.770;23.400;2023-05-29T12:05:33;4.88;;;2.55;;
32196;SDS011;18697;42.770;23.400;2023-05-29T12:08:09;2.78;;;2.58;;
32196;SDS011;18697;42.770;23.400;2023-05-29T12:10:35;2.58;;;2.30;;
32196;SDS011;18697;42.770;23.400;2023-05-29T12:13:00;3.55;;;2.50;;
32196;SDS011;18697;42.770;23.400;2023-05-29T12:15:26;4.57;;;2.70;;
32196;SDS011;18697;42.770;23.400;2023-05-29T12:17:53;2.80;;;2.60;;
32196;SDS011;18697;42.770;23.400;2023-05-29T12:20:22;3.72;;;3.05;;
32196;SDS011;18697;42.770;23.400;2023-05-29T12:22:48;3.97;;;2.78;;
32196;SDS011;18697;42.770;23.400;2023-05-29T12:25:15;4.13;;;3.10;;
32196;SDS011;18697;42.770;23.400;2023-05-29T12:27:42;5.70;;;3.40;;
32196;SDS011;18697;42.770;23.400;2023-05-29T12:30:11;4.30;;;2.90;;
32196;SDS011;18697;42.770;23.400;2023-05-29T12:32:39;3.25;;;2.95;;
32196;SDS011;18697;42.770;23.400;2023-05-29T12:35:10;4.50;;;3.08;;
32196;SDS011;18697;42.770;23.400;2023-05-29T12:37:45;3.00;;;2.72;;
32196;SDS011;18697;42.770;23.400;2023-05-29T12:40:16;8.63;;;2.90;;
32196;SDS011;18697;42.770;23.400;2023-05-29T12:42:43;3.90;;;2.97;;
32196;SDS011;18697;42.770;23.400;2023-05-29T12:45:09;5.47;;;2.85;;
32196;SDS011;18697;42.770;23.400;2023-05-29T12:47:36;5.13;;;3.15;;
32196;SDS011;18697;42.770;23.400;2023-05-29T12:52:59;3.35;;;3.05;;
32196;SDS011;18697;42.770;23.400;2023-05-29T12:55:29;5.28;;;3.22;;
32196;SDS011;18697;42.770;23.400;2023-05-29T12:58:01;5.03;;;3.38;;
32196;SDS011;18697;42.770;23.400;2023-05-29T13:00:27;5.72;;;3.20;;
32196;SDS011;18697;42.770;23.400;2023-05-29T13:02:52;3.33;;;3.03;;
32196;SDS011;18697;42.770;23.400;2023-05-29T13:05:18;5.82;;;3.78;;
32196;SDS011;18697;42.770;23.400;2023-05-29T13:07:46;11.88;;;10.73;;
32196;SDS011;18697;42.770;23.400;2023-05-29T13:10:12;6.05;;;1.90;;
32196;SDS011;18697;42.770;23.400;2023-05-29T13:12:40;5.55;;;1.50;;
32196;SDS011;18697;42.770;23.400;2023-05-29T13:15:06;2.40;;;0.88;;
32196;SDS011;18697;42.770;23.400;2023-05-29T13:17:32;1.77;;;1.10;;
32196;SDS011;18697;42.770;23.400;2023-05-29T13:19:58;0.90;;;0.90;;
32196;SDS011;18697;42.770;23.400;2023-05-29T13:22:24;0.85;;;0.80;;
32196;SDS011;18697;42.770;23.400;2023-05-29T13:24:55;4.38;;;0.80;;
32196;SDS011;18697;42.770;23.400;2023-05-29T13:27:22;1.27;;;1.00;;
32196;SDS011;18697;42.770;23.400;2023-05-29T13:29:48;0.63;;;0.63;;
32196;SDS011;18697;42.770;23.400;2023-05-29T13:32:14;2.20;;;0.68;;
32196;SDS011;18697;42.770;23.400;2023-05-29T13:34:40;0.52;;;0.50;;
32196;SDS011;18697;42.770;23.400;2023-05-29T13:37:05;1.15;;;0.70;;
32196;SDS011;18697;42.770;23.400;2023-05-29T13:39:31;1.63;;;1.00;;
32196;SDS011;18697;42.770;23.400;2023-05-29T13:41:56;1.63;;;0.75;;
32196;SDS011;18697;42.770;23.400;2023-05-29T13:44:22;0.80;;;0.80;;
32196;SDS011;18697;42.770;23.400;2023-05-29T13:46:47;1.15;;;0.90;;
32196;SDS011;18697;42.770;23.400;2023-05-29T13:49:12;1.13;;;0.75;;
32196;SDS011;18697;42.770;23.400;2023-05-29T13:51:38;8.57;;;1.10;;
32196;SDS011;18697;42.770;23.400;2023-05-29T13:54:03;2.40;;;1.30;;
32196;SDS011;18697;42.770;23.400;2023-05-29T13:56:29;2.17;;;1.65;;
32196;SDS011;18697;42.770;23.400;2023-05-29T13:58:55;1.42;;;0.73;;
32196;SDS011;18697;42.770;23.400;2023-05-29T14:01:20;3.10;;;1.00;;
32196;SDS011;18697;42.770;23.400;2023-05-29T14:03:46;1.38;;;0.75;;
32196;SDS011;18697;42.770;23.400;2023-05-29T14:06:12;5.65;;;2.80;;
32196;SDS011;18697;42.770;23.400;2023-05-29T14:08:39;5.63;;;0.90;;
32196;SDS011;18697;42.770;23.400;2023-05-29T14:11:04;1.10;;;1.00;;
32196;SDS011;18697;42.770;23.400;2023-05-29T14:13:29;0.95;;;0.93;;
32196;SDS011;18697;42.770;23.400;2023-05-29T14:15:55;2.72;;;0.77;;
32196;SDS011;18697;42.770;23.400;2023-05-29T14:18:22;1.20;;;1.00;;
32196;SDS011;18697;42.770;23.400;2023-05-29T14:20:48;3.30;;;0.80;;
32196;SDS011;18697;42.770;23.400;2023-05-29T14:23:14;1.30;;;1.20;;
32196;SDS011;18697;42.770;23.400;2023-05-29T14:25:42;3.15;;;1.15;;
32196;SDS011;18697;42.770;23.400;2023-05-29T14:28:07;1.33;;;1.23;;
32196;SDS011;18697;42.770;23.400;2023-05-29T14:30:32;2.78;;;1.70;;
32196;SDS011;18697;42.770;23.400;2023-05-29T14:32:58;1.95;;;1.30;;
32196;SDS011;18697;42.770;23.400;2023-05-29T14:35:23;1.13;;;1.02;;
32196;SDS011;18697;42.770;23.400;2023-05-29T14:37:49;3.20;;;1.50;;
32196;SDS011;18697;42.770;23.400;2023-05-29T14:40:14;1.10;;;1.00;;
32196;SDS011;18697;42.770;23.400;2023-05-29T14:42:39;1.80;;;1.42;;
32196;SDS011;18697;42.770;23.400;2023-05-29T14:45:05;1.55;;;1.45;;
32196;SDS011;18697;42.770;23.400;2023-05-29T14:47:32;1.48;;;1.30;;
32196;SDS011;18697;42.770;23.400;2023-05-29T14:49:57;2.20;;;1.63;;
32196;SDS011;18697;42.770;23.400;2023-05-29T14:52:23;4.55;;;2.00;;
32196;SDS011;18697;42.770;23.400;2023-05-29T14:54:48;2.00;;;1.80;;
32196;SDS011;18697;42.770;23.400;2023-05-29T14:57:13;2.33;;;1.98;;